Terminal Aerodrome Forecast
Issued by NWS

Home | Current Version | Previous Version | Text Only | Print | Product List | Glossary On
Versions: 1 2 3 4 5 6 7 8 9 10 11 12 13 14 15 16 17 18 19
000
FTUS42 KMLB 311518 AAC
TAFLEE
TAF AMD
KLEE 311518Z 3115/0112 20012KT P6SM VCSH SCT015 BKN030
      TEMPO 3115/3118 5SM SHRA BKN009 BKN025
     FM311800 20013G20KT P6SM VCSH SCT030 OVC060
     FM010000 19006KT P6SM VCSH FEW010 SCT040 BKN100=

USA.gov is the U.S. government's official web portal to all federal, state and local government web resources and services.